createdAt,value
2022-11-17T00:00:44.284Z,11.65
2022-11-17T00:03:16.425Z,11.62
2022-11-17T00:05:45.512Z,11.51
2022-11-17T00:08:14.188Z,11.39
2022-11-17T00:10:42.714Z,11.38
2022-11-17T00:13:30.304Z,11.44
2022-11-17T00:15:58.672Z,11.29
2022-11-17T00:18:44.249Z,11.24
2022-11-17T00:21:21.431Z,11.21
2022-11-17T00:23:50.679Z,11.17
2022-11-17T00:26:21.812Z,11.35
2022-11-17T00:28:54.699Z,11.26
2022-11-17T00:31:42.567Z,11.18
2022-11-17T00:34:16.900Z,11.26
2022-11-17T00:36:47.824Z,11.29
2022-11-17T00:39:18.270Z,11.30
2022-11-17T00:41:46.798Z,11.27
2022-11-17T00:44:17.176Z,11.32
2022-11-17T00:46:45.997Z,11.40
2022-11-17T00:49:15.694Z,11.37
2022-11-17T00:51:43.950Z,11.42
2022-11-17T00:54:14.803Z,11.42
2022-11-17T00:56:43.062Z,11.33
2022-11-17T00:59:11.765Z,11.40
2022-11-17T01:01:41.976Z,11.37
2022-11-17T01:04:10.448Z,11.40
2022-11-17T01:06:41.969Z,11.45
2022-11-17T01:09:16.755Z,11.42
2022-11-17T01:11:45.581Z,11.43
2022-11-17T01:14:17.761Z,11.37
2022-11-17T01:16:47.417Z,11.42
2022-11-17T01:19:16.610Z,11.41
2022-11-17T01:21:45.501Z,11.49
2022-11-17T01:24:15.295Z,11.50
2022-11-17T01:26:45.625Z,11.51
2022-11-17T01:29:16.975Z,11.45
2022-11-17T01:31:51.082Z,11.51
2022-11-17T01:34:19.534Z,11.55
2022-11-17T01:37:05.614Z,11.64
2022-11-17T01:39:33.881Z,11.70
2022-11-17T01:42:06.276Z,11.67
2022-11-17T01:44:59.004Z,11.56
2022-11-17T01:47:40.521Z,11.65
2022-11-17T01:50:20.666Z,11.64
2022-11-17T01:52:52.177Z,11.63
2022-11-17T01:55:23.000Z,11.62
2022-11-17T01:57:57.439Z,11.70
2022-11-17T02:00:25.656Z,11.60
2022-11-17T02:02:55.385Z,11.61
2022-11-17T02:05:37.805Z,11.59
2022-11-17T02:08:07.877Z,11.61
2022-11-17T02:10:37.353Z,11.53
2022-11-17T02:13:06.536Z,11.58
2022-11-17T02:15:34.765Z,11.43
2022-11-17T02:18:04.573Z,11.47
2022-11-17T02:20:59.721Z,11.56
2022-11-17T02:24:19.655Z,11.46
2022-11-17T02:27:46.036Z,11.45
2022-11-17T02:30:17.921Z,11.38
2022-11-17T02:32:59.931Z,11.31
2022-11-17T02:35:37.580Z,11.40
2022-11-17T02:38:18.195Z,11.42
2022-11-17T02:40:53.933Z,11.38
2022-11-17T02:43:49.605Z,11.49
2022-11-17T02:46:21.504Z,11.47
2022-11-17T02:48:55.601Z,11.54
2022-11-17T02:51:26.626Z,11.56
2022-11-17T02:53:57.339Z,11.56
2022-11-17T02:56:25.555Z,11.55
2022-11-17T02:59:01.641Z,11.53
2022-11-17T03:02:01.496Z,11.66
2022-11-17T03:04:40.752Z,11.61
2022-11-17T03:07:28.075Z,11.61
2022-11-17T03:10:13.710Z,11.41
2022-11-17T03:12:49.046Z,11.51
2022-11-17T03:15:29.080Z,11.50
2022-11-17T03:18:09.202Z,11.60
2022-11-17T03:20:48.179Z,11.47
2022-11-17T03:23:24.543Z,11.62
2022-11-17T03:25:57.892Z,11.57
2022-11-17T03:28:31.032Z,11.41
2022-11-17T03:31:02.331Z,11.33
2022-11-17T03:33:31.769Z,11.45
2022-11-17T03:36:08.030Z,11.69
2022-11-17T03:38:43.636Z,11.70
2022-11-17T03:41:15.270Z,11.82
2022-11-17T03:43:48.469Z,11.85
2022-11-17T03:46:20.866Z,11.80
2022-11-17T03:48:56.736Z,11.71
2022-11-17T03:51:27.932Z,11.60
2022-11-17T03:53:56.570Z,11.52
2022-11-17T03:56:36.975Z,11.63
2022-11-17T03:59:13.140Z,11.60
2022-11-17T04:01:43.507Z,11.43
2022-11-17T04:04:16.195Z,11.49
2022-11-17T04:06:44.255Z,11.58
2022-11-17T04:09:12.617Z,11.60
2022-11-17T04:11:58.584Z,11.59
2022-11-17T04:14:44.352Z,11.84
2022-11-17T04:17:14.138Z,11.88
2022-11-17T04:19:42.279Z,11.89
2022-11-17T04:22:10.493Z,11.95
2022-11-17T04:24:38.658Z,12.13
2022-11-17T04:27:24.318Z,12.05
2022-11-17T04:29:52.511Z,12.20
2022-11-17T04:32:22.095Z,12.25
2022-11-17T04:34:50.488Z,12.13
2022-11-17T04:37:18.795Z,11.98
2022-11-17T04:39:46.992Z,12.13
2022-11-17T04:42:14.448Z,11.96
2022-11-17T04:44:42.860Z,12.07
2022-11-17T04:47:10.983Z,11.99
2022-11-17T04:49:41.590Z,11.98
2022-11-17T04:52:10.827Z,11.89
2022-11-17T04:54:40.133Z,11.75
2022-11-17T04:57:08.415Z,11.70
2022-11-17T04:59:36.710Z,11.79
2022-11-17T05:02:06.270Z,11.84
2022-11-17T05:04:51.337Z,11.95
2022-11-17T05:07:21.192Z,12.06
2022-11-17T05:09:49.460Z,11.84
2022-11-17T05:12:49.933Z,11.83
2022-11-17T05:15:38.347Z,11.89
2022-11-17T05:18:05.671Z,11.88
2022-11-17T05:20:34.354Z,11.75
2022-11-17T05:23:21.288Z,11.68
2022-11-17T05:25:49.516Z,11.54
2022-11-17T05:28:18.773Z,11.55
2022-11-17T05:30:47.214Z,11.49
2022-11-17T05:33:15.396Z,11.49
2022-11-17T05:35:43.639Z,11.53
2022-11-17T05:38:13.195Z,11.71
2022-11-17T05:40:45.300Z,11.85
2022-11-17T05:43:13.680Z,11.68
2022-11-17T05:45:41.789Z,11.65
2022-11-17T05:48:10.038Z,11.50
2022-11-17T05:50:38.380Z,11.61
2022-11-17T05:53:06.751Z,11.66
2022-11-17T05:55:36.503Z,11.65
2022-11-17T05:58:16.475Z,11.43
2022-11-17T06:00:45.614Z,11.67
2022-11-17T06:03:20.835Z,11.50
2022-11-17T06:05:50.099Z,11.36
2022-11-17T06:08:22.265Z,11.24
2022-11-17T06:10:51.961Z,11.33
2022-11-17T06:13:26.102Z,11.23
2022-11-17T06:15:55.068Z,11.52
2022-11-17T06:18:29.158Z,11.38
2022-11-17T06:20:57.404Z,11.56
2022-11-17T06:23:31.416Z,11.09
2022-11-17T06:26:04.746Z,11.35
2022-11-17T06:28:35.237Z,11.42
2022-11-17T06:31:03.737Z,11.22
2022-11-17T06:33:33.568Z,11.28
2022-11-17T06:36:03.255Z,11.30
2022-11-17T06:38:33.513Z,11.23
2022-11-17T06:41:07.530Z,11.34
2022-11-17T06:43:40.015Z,11.44
2022-11-17T06:46:09.182Z,11.55
2022-11-17T06:48:37.924Z,11.32
2022-11-17T06:51:07.644Z,11.01
2022-11-17T06:53:37.411Z,11.04
2022-11-17T06:56:08.987Z,11.05
2022-11-17T06:58:39.634Z,11.43
2022-11-17T07:01:10.434Z,11.24
2022-11-17T07:03:40.991Z,11.15
2022-11-17T07:06:11.503Z,10.84
2022-11-17T07:08:40.401Z,10.71
2022-11-17T07:11:13.505Z,10.69
2022-11-17T07:13:43.038Z,10.79
2022-11-17T07:16:14.594Z,10.69
2022-11-17T07:18:45.142Z,10.91
2022-11-17T07:21:15.399Z,10.84
2022-11-17T07:23:44.767Z,11.09
2022-11-17T07:26:16.201Z,10.98
2022-11-17T07:28:44.433Z,11.25
2022-11-17T07:31:12.676Z,11.19
2022-11-17T07:33:41.294Z,10.98
2022-11-17T07:36:12.890Z,10.92
2022-11-17T07:38:41.721Z,10.80
2022-11-17T07:41:13.526Z,10.79
2022-11-17T07:43:43.045Z,10.85
2022-11-17T07:46:14.621Z,10.77
2022-11-17T07:48:44.124Z,10.88
2022-11-17T07:51:14.127Z,10.80
2022-11-17T07:53:42.335Z,10.82
2022-11-17T07:56:13.584Z,10.81
2022-11-17T07:58:43.230Z,11.01
2022-11-17T08:01:15.784Z,11.25
2022-11-17T08:03:45.968Z,11.33
2022-11-17T08:06:14.964Z,11.39
2022-11-17T08:08:43.106Z,11.37
2022-11-17T08:11:14.250Z,11.56
2022-11-17T08:13:45.049Z,11.55
2022-11-17T08:16:14.358Z,11.65
2022-11-17T08:18:45.957Z,11.70
2022-11-17T08:21:17.303Z,11.58
2022-11-17T08:23:45.772Z,11.66
2022-11-17T08:26:13.937Z,11.68
2022-11-17T08:28:47.814Z,11.40
2022-11-17T08:31:16.461Z,11.40
2022-11-17T08:33:51.193Z,11.68
2022-11-17T08:36:20.660Z,11.38
2022-11-17T08:38:55.023Z,11.94
2022-11-17T08:41:23.661Z,11.74
2022-11-17T08:43:53.430Z,11.77
2022-11-17T08:46:21.679Z,11.87
2022-11-17T08:48:53.779Z,11.69
2022-11-17T08:51:24.884Z,11.56
2022-11-17T08:53:54.436Z,11.71
2022-11-17T08:56:23.095Z,11.77
2022-11-17T08:58:52.705Z,11.74
2022-11-17T09:01:21.007Z,11.62
2022-11-17T09:03:51.715Z,11.78
2022-11-17T09:06:21.216Z,11.80
2022-11-17T09:08:50.175Z,11.64
2022-11-17T09:11:18.515Z,11.72
2022-11-17T09:13:47.039Z,11.52
2022-11-17T09:16:20.006Z,11.60
2022-11-17T09:18:48.262Z,11.80
2022-11-17T09:21:17.324Z,11.68
2022-11-17T09:23:45.677Z,11.74
2022-11-17T09:26:16.158Z,11.56
2022-11-17T09:28:47.837Z,11.76
2022-11-17T09:31:20.671Z,11.82
2022-11-17T09:33:49.479Z,11.89
2022-11-17T09:36:18.219Z,11.86
2022-11-17T09:38:47.929Z,11.82
2022-11-17T09:41:26.271Z,11.80
2022-11-17T09:44:15.351Z,11.84
2022-11-17T09:47:04.458Z,12.00
2022-11-17T09:49:45.146Z,11.79
2022-11-17T09:52:20.466Z,11.96
2022-11-17T09:54:55.916Z,11.98
2022-11-17T09:57:31.818Z,12.11
2022-11-17T10:00:13.095Z,12.20
2022-11-17T10:02:45.658Z,12.07
2022-11-17T10:05:16.084Z,11.96
2022-11-17T10:07:50.846Z,11.67
2022-11-17T10:10:23.568Z,11.79
2022-11-17T10:12:59.142Z,11.83
2022-11-17T10:15:32.198Z,11.60
2022-11-17T10:18:04.195Z,11.92
2022-11-17T10:20:32.816Z,12.11
2022-11-17T10:23:03.985Z,11.96
2022-11-17T10:25:40.599Z,11.95
2022-11-17T10:28:24.707Z,12.23
2022-11-17T10:31:00.554Z,12.24
2022-11-17T10:33:43.866Z,11.98
2022-11-17T10:36:20.986Z,12.10
2022-11-17T10:38:52.869Z,11.98
2022-11-17T10:41:25.127Z,12.35
2022-11-17T10:44:02.100Z,12.25
2022-11-17T10:46:43.167Z,12.42
2022-11-17T10:49:27.047Z,12.31
2022-11-17T10:52:07.677Z,12.53
2022-11-17T10:54:36.058Z,12.65
2022-11-17T10:57:09.849Z,12.39
2022-11-17T10:59:48.707Z,12.68
2022-11-17T11:02:36.169Z,12.04
2022-11-17T11:05:17.686Z,12.15
2022-11-17T11:07:46.611Z,12.25
2022-11-17T11:10:19.664Z,12.45
2022-11-17T11:12:56.588Z,12.56
2022-11-17T11:15:31.583Z,12.65
2022-11-17T11:18:02.317Z,12.37
2022-11-17T11:20:44.717Z,12.68
2022-11-17T11:23:21.833Z,12.61
2022-11-17T11:25:56.601Z,12.72
2022-11-17T11:28:47.933Z,12.84
2022-11-17T11:31:29.291Z,12.82
2022-11-17T11:34:16.219Z,12.71
2022-11-17T11:36:51.794Z,13.06
2022-11-17T11:39:32.974Z,12.91
2022-11-17T11:42:27.630Z,12.96
2022-11-17T11:45:36.538Z,12.97
2022-11-17T11:48:27.669Z,12.94
2022-11-17T11:50:59.558Z,13.21
2022-11-17T11:53:44.723Z,13.19
2022-11-17T11:56:22.087Z,12.72
2022-11-17T11:59:00.407Z,12.79
2022-11-17T12:01:35.688Z,13.06
2022-11-17T12:04:22.287Z,12.98
2022-11-17T12:07:02.090Z,12.94
2022-11-17T12:09:50.270Z,13.18
2022-11-17T12:12:21.757Z,12.99
2022-11-17T12:15:13.808Z,12.82
2022-11-17T12:18:03.950Z,13.01
2022-11-17T12:21:07.196Z,13.10
2022-11-17T12:24:14.521Z,12.77
2022-11-17T12:26:46.008Z,12.68
2022-11-17T12:29:32.229Z,12.80
2022-11-17T12:32:03.391Z,12.84
2022-11-17T12:34:35.431Z,13.05
2022-11-17T12:37:28.054Z,12.99
2022-11-17T12:40:02.870Z,12.95
2022-11-17T12:42:33.896Z,13.02
2022-11-17T12:45:11.190Z,12.75
2022-11-17T12:47:44.209Z,13.13
2022-11-17T12:50:50.349Z,13.04
2022-11-17T12:53:34.124Z,13.74
2022-11-17T12:56:38.694Z,13.74
2022-11-17T12:59:53.367Z,13.46
2022-11-17T13:02:41.736Z,14.11
2022-11-17T13:05:18.417Z,13.86
2022-11-17T13:07:46.572Z,13.62
2022-11-17T13:10:29.638Z,13.43
2022-11-17T13:13:11.530Z,13.65
2022-11-17T13:15:43.728Z,13.61
2022-11-17T13:18:20.818Z,13.38
2022-11-17T13:20:50.062Z,13.33
2022-11-17T13:23:23.508Z,13.68
2022-11-17T13:26:56.902Z,13.90
2022-11-17T13:29:26.245Z,13.49
2022-11-17T13:32:17.762Z,13.53
2022-11-17T13:34:56.493Z,13.20
2022-11-17T13:37:28.547Z,13.68
2022-11-17T13:40:01.117Z,13.67
2022-11-17T13:42:31.871Z,13.54
2022-11-17T13:45:03.978Z,13.66
2022-11-17T13:47:48.561Z,13.92
2022-11-17T13:50:34.295Z,13.53
2022-11-17T13:53:06.995Z,13.30
2022-11-17T13:55:35.906Z,13.49
2022-11-17T13:58:12.820Z,13.36
2022-11-17T14:00:54.203Z,13.33
2022-11-17T14:03:37.139Z,13.44
2022-11-17T14:06:08.164Z,13.71
2022-11-17T14:08:38.060Z,13.30
2022-11-17T14:11:21.056Z,13.71
2022-11-17T14:13:52.387Z,13.22
2022-11-17T14:16:26.251Z,13.49
2022-11-17T14:19:03.363Z,12.85
2022-11-17T14:21:32.974Z,13.22
2022-11-17T14:24:11.414Z,13.29
2022-11-17T14:26:44.799Z,13.18
2022-11-17T14:29:15.698Z,12.98
2022-11-17T14:31:44.402Z,12.93
2022-11-17T14:34:18.377Z,13.04
2022-11-17T14:36:50.254Z,12.89
2022-11-17T14:39:19.654Z,12.93
2022-11-17T14:41:51.408Z,13.22
2022-11-17T14:44:19.783Z,13.40
2022-11-17T14:46:50.117Z,13.32
2022-11-17T14:49:25.478Z,12.99
2022-11-17T14:51:56.288Z,13.18
2022-11-17T14:54:24.994Z,13.39
2022-11-17T14:56:53.210Z,13.29
2022-11-17T14:59:23.631Z,13.20
2022-11-17T15:01:53.927Z,13.10
2022-11-17T15:07:12.020Z,12.87
2022-11-17T15:09:41.519Z,12.83
2022-11-17T15:12:11.540Z,13.05
2022-11-17T15:14:42.247Z,13.04
2022-11-17T15:17:14.516Z,12.56
2022-11-17T15:19:45.192Z,12.74
2022-11-17T15:22:13.552Z,12.54
2022-11-17T15:24:42.225Z,12.86
2022-11-17T15:27:12.292Z,12.63
2022-11-17T15:29:40.728Z,12.53
2022-11-17T15:32:08.901Z,12.34
2022-11-17T15:34:37.314Z,12.37
2022-11-17T15:37:12.311Z,12.50
2022-11-17T15:39:41.271Z,12.45
2022-11-17T15:42:09.416Z,12.62
2022-11-17T15:44:37.659Z,12.58
2022-11-17T15:47:07.163Z,12.56
2022-11-17T15:49:36.413Z,12.40
2022-11-17T15:52:09.201Z,12.30
2022-11-17T15:54:37.605Z,12.02
2022-11-17T15:57:06.084Z,12.11
2022-11-17T15:59:34.207Z,12.37
2022-11-17T16:02:11.954Z,12.47
2022-11-17T16:04:41.667Z,12.37
2022-11-17T16:07:11.408Z,11.95
2022-11-17T16:09:39.910Z,12.04
2022-11-17T16:12:08.209Z,11.95
2022-11-17T16:14:40.622Z,12.33
2022-11-17T16:17:10.543Z,12.00
2022-11-17T16:19:38.694Z,11.95
2022-11-17T16:22:06.876Z,12.09
2022-11-17T16:24:36.417Z,12.30
2022-11-17T16:27:08.653Z,12.40
2022-11-17T16:29:37.044Z,12.53
2022-11-17T16:32:05.593Z,12.44
2022-11-17T16:34:33.739Z,12.43
2022-11-17T16:37:01.853Z,12.14
2022-11-17T16:39:30.090Z,12.35
2022-11-17T16:42:02.516Z,12.24
2022-11-17T16:44:31.104Z,12.25
2022-11-17T16:46:59.288Z,12.28
2022-11-17T16:49:27.544Z,12.20
2022-11-17T16:51:55.700Z,12.23
2022-11-17T16:54:24.527Z,12.19
2022-11-17T16:56:52.837Z,12.03
2022-11-17T16:59:23.489Z,12.16
2022-11-17T17:01:51.690Z,12.23
2022-11-17T17:04:21.658Z,12.24
2022-11-17T17:06:50.166Z,11.83
2022-11-17T17:09:23.208Z,12.12
2022-11-17T17:11:55.640Z,12.09
2022-11-17T17:14:25.240Z,12.16
2022-11-17T17:16:53.405Z,12.12
2022-11-17T17:19:23.159Z,11.86
2022-11-17T17:21:55.746Z,11.94
2022-11-17T17:24:25.990Z,12.07
2022-11-17T17:26:54.670Z,12.13
2022-11-17T17:29:24.353Z,12.12
2022-11-17T17:31:52.471Z,11.62
2022-11-17T17:34:20.733Z,11.95
2022-11-17T17:36:48.953Z,11.22
2022-11-17T17:39:18.950Z,11.40
2022-11-17T17:41:47.634Z,11.24
2022-11-17T17:44:18.699Z,11.40
2022-11-17T17:46:49.267Z,11.31
2022-11-17T17:49:18.857Z,11.38
2022-11-17T17:51:47.492Z,11.41
2022-11-17T17:54:18.235Z,11.26
2022-11-17T17:56:47.280Z,11.27
2022-11-17T17:59:16.817Z,11.12
2022-11-17T18:01:47.497Z,11.09
2022-11-17T18:04:17.361Z,11.08
2022-11-17T18:06:47.938Z,11.02
2022-11-17T18:09:19.310Z,11.14
2022-11-17T18:11:49.705Z,11.16
2022-11-17T18:14:24.131Z,11.07
2022-11-17T18:16:54.328Z,10.92
2022-11-17T18:19:28.420Z,10.82
2022-11-17T18:22:03.043Z,10.81
2022-11-17T18:24:31.705Z,11.01
2022-11-17T18:26:59.959Z,10.74
2022-11-17T18:29:28.234Z,10.88
2022-11-17T18:31:57.479Z,10.80
2022-11-17T18:34:29.246Z,10.73
2022-11-17T18:36:57.695Z,10.71
2022-11-17T18:39:28.204Z,10.59
2022-11-17T18:41:56.614Z,10.74
2022-11-17T18:44:24.797Z,10.72
2022-11-17T18:47:01.192Z,10.71
2022-11-17T18:49:34.541Z,10.93
2022-11-17T18:52:03.174Z,11.10
2022-11-17T18:54:31.575Z,10.80
2022-11-17T18:57:01.471Z,10.88
2022-11-17T18:59:29.756Z,11.11
2022-11-17T19:01:58.150Z,10.72
2022-11-17T19:04:26.363Z,10.65
2022-11-17T19:06:56.099Z,10.55
2022-11-17T19:09:25.709Z,10.51
2022-11-17T19:11:54.685Z,10.30
2022-11-17T19:14:22.897Z,10.62
2022-11-17T19:16:51.330Z,10.76
2022-11-17T19:19:20.321Z,10.60
2022-11-17T19:21:48.952Z,10.46
2022-11-17T19:24:18.946Z,10.37
2022-11-17T19:26:47.376Z,10.49
2022-11-17T19:29:17.484Z,10.45
2022-11-17T19:31:46.610Z,10.56
2022-11-17T19:34:17.081Z,10.55
2022-11-17T19:36:46.214Z,10.62
2022-11-17T19:39:15.424Z,10.58
2022-11-17T19:41:47.523Z,10.41
2022-11-17T19:44:15.725Z,10.67
2022-11-17T19:46:47.166Z,10.65
2022-11-17T19:49:16.054Z,10.66
2022-11-17T19:51:44.368Z,10.69
2022-11-17T19:54:14.478Z,10.62
2022-11-17T19:56:45.409Z,10.75
2022-11-17T19:59:17.816Z,10.62
2022-11-17T20:01:48.246Z,10.44
2022-11-17T20:04:17.736Z,10.60
2022-11-17T20:06:45.883Z,10.71
2022-11-17T20:09:16.774Z,10.59
2022-11-17T20:11:46.608Z,10.39
2022-11-17T20:14:15.348Z,10.10
2022-11-17T20:16:43.492Z,10.47
2022-11-17T20:19:13.596Z,10.44
2022-11-17T20:21:43.789Z,10.52
2022-11-17T20:24:12.150Z,10.43
2022-11-17T20:26:42.928Z,10.31
2022-11-17T20:29:12.432Z,10.52
2022-11-17T20:31:40.790Z,10.43
2022-11-17T20:34:16.700Z,10.49
2022-11-17T20:36:45.367Z,10.70
2022-11-17T20:39:15.625Z,10.43
2022-11-17T20:41:45.144Z,10.43
2022-11-17T20:44:24.624Z,10.40
2022-11-17T20:46:55.867Z,10.59
2022-11-17T20:49:28.232Z,10.51
2022-11-17T20:51:56.475Z,10.43
2022-11-17T20:54:24.635Z,10.40
2022-11-17T20:56:52.907Z,10.32
2022-11-17T20:59:22.762Z,10.24
2022-11-17T21:01:53.956Z,10.26
2022-11-17T21:04:22.566Z,10.01
2022-11-17T21:06:51.030Z,10.27
2022-11-17T21:09:19.573Z,10.20
2022-11-17T21:12:00.149Z,10.22
2022-11-17T21:14:32.213Z,10.08
2022-11-17T21:17:01.484Z,10.02
2022-11-17T21:19:31.136Z,10.02
2022-11-17T21:22:01.650Z,10.13
2022-11-17T21:24:29.803Z,10.12
2022-11-17T21:26:57.983Z,10.01
2022-11-17T21:29:29.229Z,10.13
2022-11-17T21:31:59.245Z,9.99
2022-11-17T21:34:27.861Z,10.09
2022-11-17T21:36:56.193Z,10.17
2022-11-17T21:39:26.906Z,10.12
2022-11-17T21:41:56.069Z,9.85
2022-11-17T21:44:24.237Z,9.97
2022-11-17T21:46:52.428Z,10.09
2022-11-17T21:49:22.019Z,10.04
2022-11-17T21:51:50.214Z,10.14
2022-11-17T21:54:18.703Z,10.02
2022-11-17T21:56:46.887Z,10.18
2022-11-17T21:59:17.011Z,10.15
2022-11-17T22:01:45.656Z,10.21
2022-11-17T22:04:18.252Z,10.28
2022-11-17T22:06:47.927Z,10.22
2022-11-17T22:09:16.813Z,10.07
2022-11-17T22:11:45.365Z,10.01
2022-11-17T22:14:16.705Z,10.05
2022-11-17T22:16:49.047Z,10.18
2022-11-17T22:19:19.674Z,10.12
2022-11-17T22:21:51.869Z,10.22
2022-11-17T22:24:21.988Z,10.21
2022-11-17T22:26:51.469Z,10.26
2022-11-17T22:29:21.911Z,10.18
2022-11-17T22:31:52.378Z,10.32
2022-11-17T22:34:20.719Z,10.17
2022-11-17T22:36:50.407Z,10.33
2022-11-17T22:39:19.776Z,10.39
2022-11-17T22:41:49.999Z,10.10
2022-11-17T22:44:19.146Z,10.24
2022-11-17T22:46:48.643Z,10.35
2022-11-17T22:49:17.214Z,10.35
2022-11-17T22:52:08.716Z,10.37
2022-11-17T22:54:41.065Z,10.28
2022-11-17T22:57:09.459Z,10.14
2022-11-17T22:59:37.761Z,10.11
2022-11-17T23:02:07.858Z,10.22
2022-11-17T23:04:36.548Z,10.23
2022-11-17T23:07:04.789Z,10.13
2022-11-17T23:09:32.940Z,9.78
2022-11-17T23:12:02.839Z,9.65
2022-11-17T23:14:31.116Z,9.56
2022-11-17T23:16:59.321Z,9.67
2022-11-17T23:19:27.747Z,9.64
2022-11-17T23:21:55.983Z,9.69
2022-11-17T23:24:24.578Z,9.73
2022-11-17T23:26:55.322Z,9.73
2022-11-17T23:29:25.182Z,9.76
2022-11-17T23:31:54.020Z,9.79
2022-11-17T23:34:22.317Z,9.92
2022-11-17T23:36:50.565Z,9.83
2022-11-17T23:39:20.500Z,10.00
2022-11-17T23:41:48.705Z,9.85
2022-11-17T23:44:17.267Z,9.77
2022-11-17T23:46:46.870Z,9.80
2022-11-17T23:49:15.433Z,10.00
2022-11-17T23:51:44.190Z,10.01
2022-11-17T23:54:13.130Z,9.61
2022-11-17T23:56:41.914Z,9.71
2022-11-17T23:59:10.312Z,9.47
